Time;durP1;ratioP1;P1;durP2;ratioP2;P2;SDS_P1;SDS_P2;PMS_P1;PMS_P2;Temp;Humidity;BMP_temperature;BMP_pressure;BME280_temperature;BME280_humidity;BME280_pressure;Samples;Min_cycle;Max_cycle;Signal;HPM_P1;HPM_P2
2021/09/06 00:00:24;;;;;;;9.70;5.35;;;;;;;16.93;43.01;94333.31;4971671;28;20053;-74
2021/09/06 00:02:49;;;;;;;6.82;5.22;;;;;;;17.02;43.18;94341.22;4975523;28;20046;-75
2021/09/06 00:05:15;;;;;;;6.05;5.03;;;;;;;16.80;43.28;94318.34;4970991;28;20057;-74
2021/09/06 00:07:46;;;;;;;11.27;6.30;;;;;;;16.99;43.00;94331.97;4969491;28;20050;-74
2021/09/06 00:10:25;;;;;;;8.63;5.35;;;;;;;16.89;43.16;94337.81;4973620;28;20053;-74
2021/09/06 00:12:52;;;;;;;10.73;5.70;;;;;;;16.63;43.79;94334.72;4973918;28;20050;-74
2021/09/06 00:15:18;;;;;;;7.95;6.00;;;;;;;16.39;44.11;94330.16;4970148;28;20033;-76
2021/09/06 00:17:43;;;;;;;9.55;6.03;;;;;;;16.36;44.68;94330.84;4970826;28;20039;-74
2021/09/06 00:20:09;;;;;;;8.73;5.28;;;;;;;16.50;44.28;94333.97;4971032;28;20042;-73
2021/09/06 00:22:34;;;;;;;9.02;6.43;;;;;;;16.49;44.30;94331.59;4973450;28;20038;-74
2021/09/06 00:24:59;;;;;;;8.00;5.32;;;;;;;16.36;44.66;94330.84;4970047;28;20022;-74
2021/09/06 00:27:25;;;;;;;7.25;5.57;;;;;;;16.29;44.55;94342.09;4974723;28;20117;-74
2021/09/06 00:29:50;;;;;;;10.30;5.18;;;;;;;16.21;44.91;94334.94;4986547;28;20531;-74
2021/09/06 00:32:16;;;;;;;7.93;5.72;;;;;;;16.27;44.75;94333.63;4971539;28;20493;-74
2021/09/06 00:34:41;;;;;;;7.28;5.35;;;;;;;16.19;44.99;94341.75;4984637;28;20065;-74
2021/09/06 00:37:06;;;;;;;11.45;6.47;;;;;;;15.86;45.54;94339.16;4973177;28;20042;-74
2021/09/06 00:39:32;;;;;;;7.90;6.32;;;;;;;16.00;45.63;94355.72;4971396;28;20034;-75
2021/09/06 00:41:57;;;;;;;6.53;4.63;;;;;;;16.04;45.77;94369.25;4975177;28;20505;-74
2021/09/06 00:44:22;;;;;;;9.18;6.50;;;;;;;16.09;45.45;94361.75;4969450;28;20402;-74
2021/09/06 00:46:48;;;;;;;9.35;5.53;;;;;;;15.93;45.77;94349.34;4990859;28;20050;-75
2021/09/06 00:49:16;;;;;;;10.60;6.38;;;;;;;16.04;45.73;94371.94;4972417;28;20129;-74
2021/09/06 00:51:41;;;;;;;7.03;5.88;;;;;;;15.78;46.21;94348.88;4974057;28;20030;-74
2021/09/06 00:54:07;;;;;;;12.23;6.13;;;;;;;16.13;45.82;94370.72;4970758;28;20074;-74
2021/09/06 00:56:33;;;;;;;6.78;5.70;;;;;;;16.27;45.59;94373.09;4971929;28;20053;-74
2021/09/06 00:58:59;;;;;;;8.10;5.47;;;;;;;16.51;45.45;94377.69;4972277;28;20054;-74
2021/09/06 01:01:25;;;;;;;7.55;5.88;;;;;;;16.58;45.11;94364.47;4975641;28;20371;-74
2021/09/06 01:03:50;;;;;;;8.95;5.60;;;;;;;16.63;45.30;94370.41;4975674;28;21434;-73
2021/09/06 01:06:15;;;;;;;10.73;5.78;;;;;;;16.45;45.57;94381.72;4971739;28;20420;-75
2021/09/06 01:08:41;;;;;;;10.18;5.72;;;;;;;16.40;45.82;94371.22;4977704;28;20168;-75
2021/09/06 01:11:06;;;;;;;10.73;5.72;;;;;;;16.50;45.54;94376.13;4977445;28;20054;-74
2021/09/06 01:13:32;;;;;;;9.40;5.72;;;;;;;16.54;45.81;94393.13;4974050;28;20069;-75
2021/09/06 01:15:57;;;;;;;10.60;6.07;;;;;;;16.65;45.86;94388.88;4976772;28;20137;-74
2021/09/06 01:18:23;;;;;;;9.10;6.72;;;;;;;16.55;45.98;94392.00;4978050;28;20057;-74
2021/09/06 01:20:48;;;;;;;8.23;7.07;;;;;;;16.55;45.82;94378.59;4976429;28;20049;-75
2021/09/06 01:23:14;;;;;;;8.05;6.47;;;;;;;16.40;45.85;94363.16;4978069;28;20030;-76
2021/09/06 01:25:39;;;;;;;8.27;6.20;;;;;;;16.33;46.70;94380.59;4973461;28;20046;-74
2021/09/06 01:28:04;;;;;;;10.40;6.00;;;;;;;16.14;46.84;94369.59;4979893;28;20132;-74
2021/09/06 01:30:30;;;;;;;7.78;6.60;;;;;;;16.23;46.88;94378.31;4974729;28;20113;-73
2021/09/06 01:32:55;;;;;;;9.93;6.57;;;;;;;16.28;46.65;94378.09;4968681;28;20888;-74
2021/09/06 01:35:21;;;;;;;8.35;6.18;;;;;;;16.27;46.42;94360.44;4975055;28;20991;-74
2021/09/06 01:37:46;;;;;;;7.90;6.03;;;;;;;16.07;46.84;94377.44;4977517;28;20038;-74
2021/09/06 01:40:12;;;;;;;9.40;6.32;;;;;;;16.12;46.83;94358.44;4977636;28;20046;-76
2021/09/06 01:42:37;;;;;;;10.55;6.35;;;;;;;16.16;46.64;94367.38;4975844;28;20370;-74
2021/09/06 01:45:04;;;;;;;14.95;6.68;;;;;;;16.18;47.15;94367.81;4976782;28;20539;-74
2021/09/06 01:47:30;;;;;;;10.05;7.20;;;;;;;16.15;47.28;94365.81;4974721;28;20042;-76
2021/09/06 01:49:57;;;;;;;11.07;7.10;;;;;;;16.30;47.40;94373.22;4975843;28;20054;-74
2021/09/06 01:52:23;;;;;;;8.55;6.57;;;;;;;16.40;47.26;94371.22;4977321;28;20046;-74
2021/09/06 01:54:49;;;;;;;10.05;7.20;;;;;;;16.39;47.39;94362.38;4977521;28;20651;-74
2021/09/06 01:57:14;;;;;;;10.85;7.82;;;;;;;16.53;46.91;94367.38;4975344;28;20121;-76
2021/09/06 01:59:39;;;;;;;10.38;8.00;;;;;;;16.49;47.41;94371.88;4974042;28;20185;-74
2021/09/06 02:02:05;;;;;;;14.27;9.57;;;;;;;16.40;47.62;94379.25;4975521;28;20031;-74
2021/09/06 02:04:30;;;;;;;11.13;9.75;;;;;;;16.50;47.67;94374.22;4974646;28;20509;-74
2021/09/06 02:06:55;;;;;;;15.68;10.77;;;;;;;16.34;48.05;94365.28;4976523;28;20034;-74
2021/09/06 02:09:21;;;;;;;15.10;11.18;;;;;;;16.29;48.18;94350.16;4978251;28;20015;-74
2021/09/06 02:11:46;;;;;;;13.32;11.32;;;;;;;16.47;47.62;94361.50;4974677;28;20046;-74
2021/09/06 02:14:12;;;;;;;11.50;10.32;;;;;;;16.75;47.34;94370.41;4974888;28;20046;-75
2021/09/06 02:16:37;;;;;;;12.82;11.30;;;;;;;16.72;47.36;94368.38;4975540;28;20544;-74
2021/09/06 02:19:03;;;;;;;13.13;11.73;;;;;;;16.65;47.82;94372.75;4977265;28;20046;-75
2021/09/06 02:21:28;;;;;;;16.52;12.10;;;;;;;16.47;47.66;94369.53;4977699;28;20495;-74
2021/09/06 02:23:54;;;;;;;18.05;12.82;;;;;;;16.56;47.79;94382.84;4974744;28;20120;-74
2021/09/06 02:26:19;;;;;;;17.30;12.73;;;;;;;16.30;48.35;94369.72;4973054;28;20031;-74
2021/09/06 02:28:47;;;;;;;14.65;12.40;;;;;;;16.10;48.91;94367.91;4975920;28;20038;-75
2021/09/06 02:31:13;;;;;;;14.93;12.40;;;;;;;16.37;48.45;94383.41;4977221;28;20489;-75
2021/09/06 02:33:38;;;;;;;15.40;12.40;;;;;;;16.35;48.90;94382.16;4976171;28;20085;-74
2021/09/06 02:36:04;;;;;;;15.90;13.15;;;;;;;16.40;48.24;94365.84;4972776;28;20088;-74
2021/09/06 02:38:29;;;;;;;14.27;12.77;;;;;;;16.65;48.18;94367.41;4976319;28;20197;-75
2021/09/06 02:40:55;;;;;;;17.85;13.00;;;;;;;16.91;47.79;94372.41;4976345;28;20034;-74
2021/09/06 02:43:20;;;;;;;14.23;11.98;;;;;;;16.92;47.09;94357.81;4970181;28;20054;-75
2021/09/06 02:45:45;;;;;;;14.27;11.00;;;;;;;17.09;47.29;94379.84;4976571;28;20582;-75
2021/09/06 02:48:11;;;;;;;14.35;10.75;;;;;;;17.17;47.14;94383.53;4975163;28;20037;-75
2021/09/06 02:50:36;;;;;;;14.85;11.55;;;;;;;17.11;47.33;94366.84;4972985;28;20038;-74
2021/09/06 02:53:02;;;;;;;16.55;11.63;;;;;;;16.97;47.27;94358.38;4979301;28;20042;-74
2021/09/06 02:55:27;;;;;;;14.02;11.63;;;;;;;16.98;47.30;94368.00;4970071;28;20054;-73
2021/09/06 02:57:53;;;;;;;13.23;10.48;;;;;;;17.03;47.11;94380.41;4978852;28;20026;-75
2021/09/06 03:00:18;;;;;;;11.77;9.88;;;;;;;16.88;47.01;94368.47;4976206;28;20561;-74
2021/09/06 03:02:44;;;;;;;12.95;9.63;;;;;;;16.92;47.10;94385.47;4977400;28;20101;-73
2021/09/06 03:05:09;;;;;;;9.43;8.43;;;;;;;16.86;47.21;94375.31;4970954;28;20497;-74
2021/09/06 03:07:38;;;;;;;10.85;8.80;;;;;;;16.70;47.49;94391.34;4974115;28;20524;-75
2021/09/06 03:10:04;;;;;;;14.90;8.88;;;;;;;16.22;49.04;94390.19;4976562;28;20321;-74
2021/09/06 03:12:29;;;;;;;11.95;9.10;;;;;;;16.38;48.80;94395.69;4976275;28;20404;-74
2021/09/06 03:14:54;;;;;;;12.98;8.40;;;;;;;16.71;48.46;94406.34;4974979;28;20034;-74
2021/09/06 03:17:20;;;;;;;11.63;8.95;;;;;;;16.93;48.33;94392.41;4972424;28;20092;-74
2021/09/06 03:19:45;;;;;;;17.65;9.13;;;;;;;16.84;48.10;94374.88;4977239;28;20034;-74
2021/09/06 03:22:11;;;;;;;13.48;10.23;;;;;;;17.11;47.47;94399.09;4970931;28;20046;-74
2021/09/06 03:24:36;;;;;;;13.07;9.90;;;;;;;16.95;47.54;94394.78;4976986;28;20018;-74
2021/09/06 03:27:02;;;;;;;11.93;10.35;;;;;;;17.02;47.54;94389.59;4973132;28;20096;-74
2021/09/06 03:29:27;;;;;;;14.00;9.30;;;;;;;16.85;47.95;94396.03;4977932;28;20065;-74
2021/09/06 03:31:53;;;;;;;9.98;7.68;;;;;;;16.80;47.80;94388.19;4971995;28;20464;-76
2021/09/06 03:34:18;;;;;;;10.23;7.90;;;;;;;16.77;47.94;94390.78;4972795;28;20972;-74
2021/09/06 03:36:43;;;;;;;11.30;8.68;;;;;;;16.73;47.89;94382.59;4976429;28;20125;-74
2021/09/06 03:39:09;;;;;;;15.63;8.55;;;;;;;16.90;48.01;94406.53;4978144;28;20037;-73
2021/09/06 03:41:34;;;;;;;10.60;8.18;;;;;;;16.90;48.26;94392.31;4973674;28;20034;-74
2021/09/06 03:44:00;;;;;;;11.15;7.93;;;;;;;16.81;48.47;94416.63;4974669;28;20043;-75
2021/09/06 03:46:25;;;;;;;13.68;9.57;;;;;;;16.92;48.05;94412.34;4974303;28;20038;-75
2021/09/06 03:48:50;;;;;;;15.82;9.98;;;;;;;16.81;48.69;94426.59;4975518;28;20030;-74
2021/09/06 03:51:16;;;;;;;12.43;9.98;;;;;;;16.71;48.84;94411.72;4972111;28;20022;-74
2021/09/06 03:53:41;;;;;;;12.10;10.40;;;;;;;16.65;49.17;94426.47;4970252;28;20125;-75
2021/09/06 03:56:07;;;;;;;13.00;10.93;;;;;;;16.61;49.40;94441.69;4977237;28;20216;-74
2021/09/06 03:58:32;;;;;;;14.38;10.15;;;;;;;16.62;49.52;94440.59;4972049;28;20527;-75
2021/09/06 04:00:57;;;;;;;12.88;10.52;;;;;;;16.77;49.15;94437.19;4973958;28;20034;-75
2021/09/06 04:03:23;;;;;;;16.92;12.13;;;;;;;16.77;49.21;94437.19;4975657;28;20034;-75
2021/09/06 04:05:48;;;;;;;14.38;10.60;;;;;;;16.50;49.88;94432.50;4969278;28;20122;-75
2021/09/06 04:08:13;;;;;;;17.58;10.75;;;;;;;16.17;49.86;94398.47;4974297;28;20046;-74
2021/09/06 04:10:39;;;;;;;12.98;10.23;;;;;;;16.51;49.89;94450.19;4971103;28;20046;-75
2021/09/06 04:13:04;;;;;;;12.23;9.65;;;;;;;16.60;49.93;94432.06;4973981;28;20117;-74
2021/09/06 04:15:30;;;;;;;16.80;11.10;;;;;;;16.74;49.91;94449.41;4974172;28;20022;-74
2021/09/06 04:17:55;;;;;;;14.52;9.65;;;;;;;16.54;50.32;94433.41;4976046;28;22741;-76
2021/09/06 04:20:21;;;;;;;14.07;10.32;;;;;;;16.83;49.90;94457.34;4968618;28;20030;-76
2021/09/06 04:22:46;;;;;;;11.98;10.20;;;;;;;16.87;49.82;94458.25;4975087;28;20030;-74
2021/09/06 04:25:12;;;;;;;18.30;11.38;;;;;;;16.94;49.63;94461.16;4974806;28;20557;-74
2021/09/06 04:27:37;;;;;;;13.10;10.90;;;;;;;17.00;49.25;94457.13;4976761;28;20488;-75
2021/09/06 04:30:04;;;;;;;13.60;10.30;;;;;;;17.03;49.61;94461.03;4971396;28;21756;-74
2021/09/06 04:32:30;;;;;;;14.80;10.75;;;;;;;16.94;49.54;94465.75;4975733;28;20034;-73
2021/09/06 04:34:56;;;;;;;20.38;11.63;;;;;;;16.60;50.77;94448.19;4979003;28;20682;-74
2021/09/06 04:37:21;;;;;;;14.70;11.20;;;;;;;16.59;50.72;94462.72;4975360;28;20576;-75
2021/09/06 04:39:46;;;;;;;18.02;11.48;;;;;;;16.56;50.89;94452.66;4978831;28;20489;-74
2021/09/06 04:42:12;;;;;;;13.57;10.82;;;;;;;16.50;51.36;94465.53;4971644;28;21130;-74
2021/09/06 04:44:37;;;;;;;18.00;11.95;;;;;;;16.46;51.62;94447.72;4981530;28;20070;-74
2021/09/06 04:47:03;;;;;;;13.82;11.13;;;;;;;16.66;51.95;94469.13;4977933;28;20528;-74
2021/09/06 04:49:29;;;;;;;75.95;13.35;;;;;;;16.74;51.38;94467.44;4978364;28;20122;-73
2021/09/06 04:51:54;;;;;;;18.05;11.68;;;;;;;16.61;52.05;94477.41;4974774;28;20444;-74
2021/09/06 04:54:20;;;;;;;14.77;11.65;;;;;;;16.73;52.04;94479.28;4979776;28;20031;-74
2021/09/06 04:56:46;;;;;;;16.00;12.50;;;;;;;16.46;52.55;94479.94;4975685;28;20034;-74
2021/09/06 04:59:11;;;;;;;15.98;11.65;;;;;;;16.44;52.76;94466.84;4978910;28;20397;-74
2021/09/06 05:01:37;;;;;;;16.02;12.25;;;;;;;16.64;52.58;94476.72;4978309;28;20046;-74
2021/09/06 05:04:03;;;;;;;16.40;11.73;;;;;;;16.85;52.18;94492.75;4981748;28;20061;-74
2021/09/06 05:06:28;;;;;;;16.00;11.50;;;;;;;16.87;51.94;94495.06;4973970;28;20592;-73
2021/09/06 05:08:53;;;;;;;14.45;12.10;;;;;;;16.88;51.12;94494.75;4976461;28;20085;-74
2021/09/06 05:11:19;;;;;;;16.23;12.68;;;;;;;16.86;51.41;94480.88;4973771;28;20117;-73
2021/09/06 05:13:44;;;;;;;15.13;11.88;;;;;;;17.00;51.17;94499.34;4979748;28;20990;-74
2021/09/06 05:16:10;;;;;;;21.63;12.23;;;;;;;16.96;50.83;94499.22;4976488;28;20477;-74
2021/09/06 05:18:35;;;;;;;18.52;12.25;;;;;;;16.99;51.39;94509.31;4973052;28;20105;-74
2021/09/06 05:21:02;;;;;;;18.42;11.48;;;;;;;17.00;51.08;94518.16;4975318;28;20030;-75
2021/09/06 05:23:27;;;;;;;14.07;11.68;;;;;;;17.00;51.18;94513.56;4977493;28;20045;-73
2021/09/06 05:25:53;;;;;;;17.05;12.00;;;;;;;17.07;51.23;94519.16;4976480;28;21358;-75
2021/09/06 05:28:19;;;;;;;15.82;12.07;;;;;;;17.04;51.81;94514.44;4976479;28;20092;-75
2021/09/06 05:30:44;;;;;;;13.90;11.68;;;;;;;16.93;52.28;94518.69;4977079;28;20032;-74
2021/09/06 05:33:10;;;;;;;21.48;12.05;;;;;;;16.80;52.82;94511.75;4975808;28;20019;-74
2021/09/06 05:35:35;;;;;;;17.60;11.15;;;;;;;17.03;52.55;94515.56;4973492;28;20062;-76
2021/09/06 05:38:01;;;;;;;18.70;12.10;;;;;;;17.14;52.89;94508.66;4980571;28;20038;-74
2021/09/06 05:40:27;;;;;;;12.07;10.45;;;;;;;17.18;52.45;94506.06;4975392;28;20519;-74
2021/09/06 05:42:52;;;;;;;18.00;11.82;;;;;;;17.26;52.37;94512.47;4973202;28;20169;-74
2021/09/06 05:45:18;;;;;;;16.05;11.07;;;;;;;17.16;52.03;94497.53;4977564;28;20030;-74
2021/09/06 05:47:43;;;;;;;15.07;11.38;;;;;;;17.00;52.66;94513.56;4978118;28;20050;-76
2021/09/06 05:50:10;;;;;;;20.65;12.27;;;;;;;17.01;52.47;94485.53;4979384;28;20507;-74
2021/09/06 05:52:35;;;;;;;18.10;12.13;;;;;;;17.06;52.47;94512.19;4973353;28;20039;-74
2021/09/06 05:55:00;;;;;;;18.55;11.80;;;;;;;17.02;52.50;94513.22;4972875;28;20591;-74
2021/09/06 05:57:26;;;;;;;14.43;11.05;;;;;;;16.88;52.99;94500.13;4979204;28;20018;-74
2021/09/06 05:59:51;;;;;;;15.65;11.90;;;;;;;16.66;54.28;94501.34;4975782;28;20050;-73
2021/09/06 06:02:17;;;;;;;14.50;11.63;;;;;;;16.75;53.99;94509.28;4971027;28;20093;-76
2021/09/06 06:04:43;;;;;;;16.52;11.25;;;;;;;16.83;53.30;94488.81;4972698;28;20588;-75
2021/09/06 06:07:08;;;;;;;14.85;10.70;;;;;;;16.77;53.70;94509.72;4978073;28;20038;-74
2021/09/06 06:09:34;;;;;;;13.68;11.07;;;;;;;16.38;54.20;94478.16;4974213;28;20049;-76
2021/09/06 06:11:59;;;;;;;14.80;11.10;;;;;;;16.44;54.39;94498.28;4977162;28;20105;-75
2021/09/06 06:14:24;;;;;;;14.50;10.65;;;;;;;16.26;54.92;94505.72;4972013;28;21282;-75
2021/09/06 06:16:50;;;;;;;14.85;11.93;;;;;;;16.33;55.16;94504.06;4975312;28;20161;-76
2021/09/06 06:19:16;;;;;;;16.88;11.50;;;;;;;16.36;55.44;94508.00;4978237;28;20045;-75
2021/09/06 06:21:41;;;;;;;11.88;10.10;;;;;;;16.58;54.91;94510.28;4975171;28;20030;-74
2021/09/06 06:24:07;;;;;;;14.95;10.32;;;;;;;16.69;54.69;94513.31;4976377;28;20556;-74
2021/09/06 06:26:32;;;;;;;14.32;10.93;;;;;;;16.80;54.64;94519.03;4975890;28;20038;-74
2021/09/06 06:28:58;;;;;;;14.15;10.00;;;;;;;16.63;54.74;94514.63;4974994;28;20528;-74
2021/09/06 06:31:24;;;;;;;16.20;10.50;;;;;;;16.65;54.84;94502.47;4975198;28;20401;-73
2021/09/06 06:33:49;;;;;;;15.98;10.57;;;;;;;16.65;54.75;94520.47;4977846;28;20015;-75
2021/09/06 06:36:16;;;;;;;12.27;10.40;;;;;;;16.82;54.61;94520.25;4975786;28;20473;-74
2021/09/06 06:38:41;;;;;;;20.08;10.48;;;;;;;16.88;54.68;94496.63;4977061;28;20556;-74
2021/09/06 06:41:07;;;;;;;17.48;10.15;;;;;;;16.90;54.16;94495.19;4976518;28;20038;-74
2021/09/06 06:43:32;;;;;;;15.65;10.10;;;;;;;17.07;53.72;94508.38;4973241;28;20031;-74
2021/09/06 06:45:58;;;;;;;14.35;10.27;;;;;;;17.39;53.20;94516.69;4976173;28;20034;-73
2021/09/06 06:48:23;;;;;;;15.38;11.13;;;;;;;17.23;53.24;94513.91;4973929;28;20097;-74
2021/09/06 06:50:49;;;;;;;16.55;9.80;;;;;;;17.10;53.29;94494.31;4974896;28;20104;-75
2021/09/06 06:53:15;;;;;;;14.70;9.55;;;;;;;17.50;53.23;94531.25;4978870;28;20027;-74
2021/09/06 06:55:41;;;;;;;15.75;10.52;;;;;;;17.59;52.34;94507.69;4972383;28;20666;-73
2021/09/06 06:58:06;;;;;;;17.83;9.90;;;;;;;17.92;51.59;94505.56;4975271;28;20046;-74
2021/09/06 07:00:32;;;;;;;14.60;9.48;;;;;;;17.84;51.52;94536.09;4979793;28;20049;-73
2021/09/06 07:02:57;;;;;;;15.75;9.55;;;;;;;17.89;51.46;94527.75;4977707;28;20041;-74
2021/09/06 07:05:23;;;;;;;13.27;8.98;;;;;;;17.78;51.23;94509.75;4971234;28;20489;-74
2021/09/06 07:07:48;;;;;;;13.45;8.88;;;;;;;17.56;51.22;94537.94;4976502;28;20050;-74
2021/09/06 07:10:13;;;;;;;12.25;9.25;;;;;;;17.66;51.58;94542.06;4977398;28;20406;-74
2021/09/06 07:12:39;;;;;;;12.82;9.13;;;;;;;17.96;50.75;94546.06;4972677;28;20034;-74
2021/09/06 07:15:07;;;;;;;14.50;9.45;;;;;;;18.02;50.40;94553.56;4973951;28;20690;-74
2021/09/06 07:17:39;;;;;;;16.80;9.40;;;;;;;17.84;50.73;94533.41;5025978;27;20488;-74
2021/09/06 07:20:05;;;;;;;15.70;9.25;;;;;;;18.12;50.45;94533.44;5003027;28;20025;-74
2021/09/06 07:22:30;;;;;;;12.15;9.30;;;;;;;17.96;50.58;94557.59;4999092;28;20185;-75
2021/09/06 07:24:56;;;;;;;10.70;8.15;;;;;;;18.13;50.60;94561.94;5002600;28;20481;-74
2021/09/06 07:27:22;;;;;;;14.40;9.20;;;;;;;18.08;50.91;94564.06;5003184;28;20021;-75
2021/09/06 07:29:47;;;;;;;15.27;9.07;;;;;;;17.78;51.02;94545.53;5003091;28;20046;-74
2021/09/06 07:32:13;;;;;;;13.00;9.52;;;;;;;17.99;51.27;94559.59;5002213;28;20033;-74
2021/09/06 07:34:38;;;;;;;13.20;9.40;;;;;;;17.68;51.77;94542.53;5002879;28;20514;-73
2021/09/06 07:37:06;;;;;;;11.30;9.43;;;;;;;18.13;51.05;94558.44;5034674;28;20042;-74
2021/09/06 07:39:33;;;;;;;10.75;7.88;;;;;;;18.38;49.60;94573.38;5004753;28;20033;-74
2021/09/06 07:42:00;;;;;;;12.20;8.30;;;;;;;17.88;49.93;94561.19;5004138;28;20126;-74
2021/09/06 07:44:26;;;;;;;11.48;9.07;;;;;;;18.10;50.05;94557.22;5001271;28;20046;-73
2021/09/06 07:46:52;;;;;;;10.45;7.38;;;;;;;18.13;48.65;94550.38;5004610;28;20042;-74
2021/09/06 07:49:18;;;;;;;17.35;9.35;;;;;;;18.19;49.38;94559.75;5003119;28;20045;-73
2021/09/06 07:51:46;;;;;;;12.65;9.90;;;;;;;18.21;49.79;94573.66;5004695;28;20017;-74
2021/09/06 07:54:12;;;;;;;15.32;9.75;;;;;;;18.09;49.13;94573.72;5002493;28;20030;-74
2021/09/06 07:56:38;;;;;;;14.13;10.02;;;;;;;18.17;49.31;94572.78;5002062;28;20069;-75
2021/09/06 07:59:04;;;;;;;15.50;10.57;;;;;;;18.33;49.45;94587.09;5004583;28;20121;-73
2021/09/06 08:01:29;;;;;;;14.45;9.00;;;;;;;18.14;49.49;94568.84;5002359;28;20750;-75
2021/09/06 08:03:54;;;;;;;10.68;8.18;;;;;;;18.43;48.63;94581.22;5006125;28;20123;-75
2021/09/06 08:06:21;;;;;;;12.38;7.70;;;;;;;18.30;48.85;94580.47;5033154;28;20112;-74
2021/09/06 08:08:46;;;;;;;10.95;8.13;;;;;;;18.27;48.54;94580.38;5002120;28;20180;-73
2021/09/06 08:11:11;;;;;;;13.05;7.85;;;;;;;18.16;48.77;94573.91;5001347;28;20508;-74
2021/09/06 08:13:37;;;;;;;14.35;7.75;;;;;;;18.20;48.26;94561.31;5005014;28;20038;-75
2021/09/06 08:16:02;;;;;;;10.10;7.30;;;;;;;18.37;48.00;94587.97;5002834;28;20651;-74
2021/09/06 08:18:28;;;;;;;10.38;7.28;;;;;;;18.45;47.17;94573.56;5002294;28;20029;-73
2021/09/06 08:20:53;;;;;;;10.00;7.53;;;;;;;18.48;46.60;94562.88;5001716;28;20140;-74
2021/09/06 08:23:18;;;;;;;13.15;7.43;;;;;;;18.56;46.30;94569.25;5001115;28;20053;-74
2021/09/06 08:25:44;;;;;;;10.80;6.78;;;;;;;18.44;46.72;94555.81;5006810;28;20109;-74
2021/09/06 08:28:09;;;;;;;10.13;7.30;;;;;;;18.36;46.97;94576.41;4993309;28;20066;-73
2021/09/06 08:30:35;;;;;;;10.82;7.07;;;;;;;18.50;45.75;94576.00;4991742;28;20046;-74
2021/09/06 08:33:00;;;;;;;15.85;6.97;;;;;;;18.55;46.28;94578.44;4990909;28;20058;-73
2021/09/06 08:35:25;;;;;;;8.77;6.63;;;;;;;18.74;45.39;94583.97;4982419;28;20568;-73
2021/09/06 08:37:51;;;;;;;12.18;6.97;;;;;;;18.71;45.98;94565.03;4985036;28;20057;-74
2021/09/06 08:40:17;;;;;;;9.02;6.55;;;;;;;18.95;45.49;94580.28;4985420;28;20049;-74
2021/09/06 08:42:43;;;;;;;7.45;6.50;;;;;;;19.18;45.28;94583.91;4988394;28;20547;-74
2021/09/06 08:45:10;;;;;;;9.75;7.05;;;;;;;19.07;44.53;94575.56;4984197;28;20078;-74
2021/09/06 08:47:36;;;;;;;9.40;6.22;;;;;;;18.98;44.71;94579.56;4987244;28;20053;-74
2021/09/06 08:50:07;;;;;;;9.93;7.75;;;;;;;18.95;43.99;94567.59;4990673;28;20038;-75
2021/09/06 08:52:32;;;;;;;9.15;7.75;;;;;;;19.01;44.33;94562.72;4986671;28;20039;-74
2021/09/06 08:54:58;;;;;;;9.35;6.55;;;;;;;19.38;44.71;94572.06;4988537;28;21075;-73
2021/09/06 08:57:23;;;;;;;8.25;6.47;;;;;;;19.38;43.52;94574.78;4985120;28;20029;-75
2021/09/06 08:59:57;;;;;;;8.93;7.07;;;;;;;19.43;43.91;94579.91;4986616;28;20532;-74
2021/09/06 09:02:23;;;;;;;12.40;7.20;;;;;;;19.41;43.28;94576.75;4985063;28;20530;-74
2021/09/06 09:04:59;;;;;;;9.05;7.53;;;;;;;19.57;42.76;94574.84;4986466;28;20050;-74
2021/09/06 09:07:26;;;;;;;8.27;7.22;;;;;;;19.53;43.12;94568.59;4993112;28;20038;-75
2021/09/06 09:09:51;;;;;;;56.03;10.10;;;;;;;19.54;42.60;94575.56;4985976;28;21089;-74
2021/09/06 09:12:18;;;;;;;10.57;7.05;;;;;;;19.64;42.67;94571.53;4988963;28;20030;-76
2021/09/06 09:14:55;;;;;;;12.48;7.53;;;;;;;19.64;41.84;94568.84;4986143;28;20034;-76
2021/09/06 09:17:22;;;;;;;10.95;7.18;;;;;;;19.66;41.01;94575.44;4986687;28;20097;-76
2021/09/06 09:19:50;;;;;;;11.98;7.25;;;;;;;19.88;41.34;94574.00;4986810;28;20457;-77
2021/09/06 09:22:28;;;;;;;12.20;6.70;;;;;;;19.77;40.56;94566.81;4987767;28;20065;-76
2021/09/06 09:24:58;;;;;;;15.95;6.93;;;;;;;19.68;40.38;94581.28;4992299;28;20034;-74
2021/09/06 09:27:39;;;;;;;10.10;7.18;;;;;;;19.61;40.57;94573.00;4984465;28;20584;-76
2021/09/06 09:30:10;;;;;;;11.18;7.25;;;;;;;19.85;41.25;94582.03;4984416;28;20488;-75
2021/09/06 09:32:37;;;;;;;12.35;7.25;;;;;;;19.88;41.84;94574.00;4984723;28;20471;-75
2021/09/06 09:35:07;;;;;;;7.72;6.72;;;;;;;19.95;40.46;94563.34;4986896;28;20049;-74
2021/09/06 09:37:34;;;;;;;9.45;6.80;;;;;;;20.09;40.53;94565.56;4994842;28;20046;-75
2021/09/06 09:40:08;;;;;;;12.07;7.38;;;;;;;20.37;40.50;94576.19;4981905;28;20112;-75
2021/09/06 09:42:44;;;;;;;8.82;6.32;;;;;;;20.06;40.33;94574.38;4978950;28;20080;-77
2021/09/06 09:45:10;;;;;;;7.80;6.82;;;;;;;20.29;41.37;94569.84;4979961;28;20048;-76
2021/09/06 09:47:36;;;;;;;7.93;6.35;;;;;;;20.30;40.04;94574.13;4975506;28;20039;-75
2021/09/06 09:50:02;;;;;;;10.73;7.20;;;;;;;20.25;39.16;94566.28;4987241;28;20034;-76
2021/09/06 09:52:27;;;;;;;8.82;7.45;;;;;;;20.28;39.46;94549.41;4982687;28;20045;-75
2021/09/06 09:54:53;;;;;;;13.10;6.50;;;;;;;20.23;39.58;94565.09;4985333;28;20583;-75
2021/09/06 09:57:20;;;;;;;12.88;7.07;;;;;;;19.97;39.96;94571.09;4986633;28;20032;-75
2021/09/06 09:59:45;;;;;;;9.32;6.80;;;;;;;19.92;40.19;94560.56;4984677;28;20081;-75
2021/09/06 10:02:22;;;;;;;9.15;6.03;;;;;;;19.68;39.94;94573.19;4986112;28;20588;-74
2021/09/06 10:04:51;;;;;;;7.93;7.07;;;;;;;19.57;39.09;94574.06;4985105;28;20509;-75
2021/09/06 10:07:19;;;;;;;14.65;7.18;;;;;;;19.63;40.02;94568.06;4985328;28;20134;-75
2021/09/06 10:09:46;;;;;;;8.52;6.45;;;;;;;19.84;39.36;94575.06;4980638;28;20492;-75
2021/09/06 10:12:33;;;;;;;7.68;6.07;;;;;;;19.92;38.84;94571.38;4984983;28;20113;-74
2021/09/06 10:15:05;;;;;;;10.63;6.13;;;;;;;20.13;39.38;94569.13;4974881;28;20397;-75
2021/09/06 10:17:38;;;;;;;10.25;6.95;;;;;;;19.95;39.57;94579.53;4989422;28;20046;-76
2021/09/06 10:20:24;;;;;;;10.38;7.00;;;;;;;19.84;40.06;94577.75;4983157;28;20046;-75
2021/09/06 10:23:09;;;;;;;12.68;6.82;;;;;;;19.99;40.81;94585.81;4984477;28;20594;-74
2021/09/06 10:25:37;;;;;;;13.23;7.20;;;;;;;19.59;41.95;94583.41;4990089;28;20120;-74
2021/09/06 10:28:06;;;;;;;9.73;7.40;;;;;;;19.38;42.76;94576.69;4982939;28;20030;-75
2021/09/06 10:30:38;;;;;;;7.90;6.18;;;;;;;19.54;43.12;94586.38;4982017;28;20444;-74
2021/09/06 10:33:06;;;;;;;12.10;7.45;;;;;;;19.61;42.38;94570.31;4984288;28;20072;-74
2021/09/06 10:35:33;;;;;;;8.77;6.80;;;;;;;19.71;42.31;94569.78;4985068;28;20497;-74
2021/09/06 10:38:12;;;;;;;9.65;6.18;;;;;;;19.97;42.07;94581.91;4979971;28;20144;-74
2021/09/06 10:40:41;;;;;;;10.00;6.45;;;;;;;19.80;41.19;94582.31;4981865;28;20034;-75
2021/09/06 10:43:24;;;;;;;8.65;6.38;;;;;;;20.01;41.17;94572.72;4981956;28;20045;-75
2021/09/06 10:45:52;;;;;;;8.65;6.60;;;;;;;20.11;40.55;94568.69;4982915;28;21538;-75
2021/09/06 10:48:24;;;;;;;9.45;7.03;;;;;;;20.21;40.13;94570.06;4982536;28;20026;-77
2021/09/06 10:50:52;;;;;;;8.55;6.93;;;;;;;20.30;40.00;94568.72;4985702;28;20034;-76
2021/09/06 10:53:20;;;;;;;8.13;6.07;;;;;;;20.12;39.17;94545.94;4984782;28;21048;-76
2021/09/06 10:55:56;;;;;;;8.00;5.57;;;;;;;20.21;38.37;94570.84;4985016;28;20044;-74
2021/09/06 10:58:26;;;;;;;7.22;5.03;;;;;;;20.15;37.82;94570.31;4982427;28;20042;-74
2021/09/06 11:00:54;;;;;;;7.30;5.40;;;;;;;20.16;38.05;94552.19;4981657;28;20037;-74
2021/09/06 11:03:21;;;;;;;7.07;6.38;;;;;;;20.17;38.46;94559.19;4980362;28;20026;-75
2021/09/06 11:05:58;;;;;;;7.97;5.78;;;;;;;20.14;38.38;94560.66;4984375;28;20408;-75
2021/09/06 11:08:24;;;;;;;7.13;6.07;;;;;;;19.89;39.58;94561.28;4979623;28;20062;-75
2021/09/06 11:10:50;;;;;;;7.57;5.80;;;;;;;19.84;39.49;94556.16;4992732;28;20042;-74
2021/09/06 11:13:15;;;;;;;8.63;5.90;;;;;;;19.98;39.22;94565.34;4984042;28;20505;-75
2021/09/06 11:15:41;;;;;;;8.88;5.82;;;;;;;19.77;40.42;94556.00;4982223;28;20050;-76
2021/09/06 11:18:08;;;;;;;10.23;6.72;;;;;;;19.70;41.07;94557.41;4981887;28;20290;-76
2021/09/06 11:20:36;;;;;;;11.35;6.60;;;;;;;19.68;41.14;94558.91;4978323;28;20053;-76